createdAt,value
2023-02-17T00:01:50.565Z,8.63
2023-02-17T00:11:50.627Z,8.89
2023-02-17T00:21:50.731Z,9.01
2023-02-17T00:31:50.956Z,8.94
2023-02-17T00:41:51.111Z,8.96
2023-02-17T00:51:51.162Z,8.68
2023-02-17T01:01:51.533Z,8.70
2023-02-17T01:11:51.596Z,8.87
2023-02-17T01:21:51.864Z,8.83
2023-02-17T01:31:51.940Z,8.79
2023-02-17T01:41:52.250Z,8.83
2023-02-17T01:51:52.095Z,8.80
2023-02-17T02:01:52.465Z,8.84
2023-02-17T02:11:52.528Z,8.59
2023-02-17T02:21:52.854Z,8.76
2023-02-17T02:31:52.950Z,8.74
2023-02-17T02:41:53.026Z,8.66
2023-02-17T02:51:53.263Z,8.84
2023-02-17T03:01:53.601Z,9.08
2023-02-17T03:11:53.636Z,8.87
2023-02-17T03:21:53.985Z,8.91
2023-02-17T03:31:54.118Z,8.86
2023-02-17T03:41:54.232Z,8.68
2023-02-17T03:51:54.300Z,8.73
2023-02-17T04:01:55.544Z,8.81
2023-02-17T04:11:54.583Z,8.87
2023-02-17T04:21:54.861Z,8.76
2023-02-17T04:31:55.219Z,8.87
2023-02-17T04:41:55.452Z,8.95
2023-02-17T04:51:55.529Z,8.84
2023-02-17T05:01:55.617Z,8.99
2023-02-17T05:11:55.635Z,9.10
2023-02-17T05:21:55.982Z,8.94
2023-02-17T05:31:56.014Z,8.98
2023-02-17T05:41:56.801Z,8.98
2023-02-17T05:51:56.434Z,8.79
2023-02-17T06:01:56.727Z,8.99
2023-02-17T06:11:56.794Z,9.15
2023-02-17T06:21:57.109Z,9.28
2023-02-17T06:31:57.247Z,9.15
2023-02-17T06:41:57.359Z,9.13
2023-02-17T06:51:57.393Z,9.24
2023-02-17T07:01:57.963Z,9.53
2023-02-17T07:11:57.816Z,9.46
2023-02-17T07:21:58.100Z,9.50
2023-02-17T07:31:58.185Z,9.54
2023-02-17T07:41:58.265Z,9.75
2023-02-17T07:51:58.489Z,9.83
2023-02-17T08:01:58.759Z,9.89
2023-02-17T08:11:58.805Z,10.09
2023-02-17T08:21:59.104Z,9.93
2023-02-17T08:31:59.220Z,9.94
2023-02-17T08:41:59.391Z,10.04
2023-02-17T08:51:59.456Z,9.96
2023-02-17T09:02:12.251Z,10.15
2023-02-17T09:11:59.956Z,10.48
2023-02-17T09:22:00.017Z,10.67
2023-02-17T09:32:00.488Z,11.10
2023-02-17T09:42:00.518Z,11.03
2023-02-17T09:52:00.620Z,10.78
2023-02-17T10:02:03.926Z,10.85
2023-02-17T10:12:00.753Z,11.11
2023-02-17T10:22:01.158Z,11.36
2023-02-17T10:32:01.337Z,11.37
2023-02-17T10:42:01.377Z,11.40
2023-02-17T10:52:01.416Z,11.46
2023-02-17T11:02:01.755Z,11.54
2023-02-17T11:12:01.791Z,11.67
2023-02-17T11:22:02.032Z,11.73
2023-02-17T11:32:02.424Z,11.79
2023-02-17T11:42:03.767Z,12.01
2023-02-17T11:52:02.604Z,12.23
2023-02-17T12:02:03.792Z,12.46
2023-02-17T12:12:02.833Z,12.31
2023-02-17T12:22:03.135Z,12.16
2023-02-17T12:32:03.217Z,12.19
2023-02-17T12:42:03.416Z,12.28
2023-02-17T12:52:03.491Z,12.31
2023-02-17T13:02:03.739Z,12.38
2023-02-17T13:12:03.768Z,12.50
2023-02-17T13:22:05.127Z,12.68
2023-02-17T13:32:04.271Z,12.83
2023-02-17T13:42:04.512Z,12.77
2023-02-17T13:52:04.565Z,13.14
2023-02-17T14:02:06.829Z,13.17
2023-02-17T14:12:04.864Z,12.90
2023-02-17T14:22:05.238Z,12.67
2023-02-17T14:32:05.466Z,12.38
2023-02-17T14:42:05.442Z,12.20
2023-02-17T14:52:05.467Z,12.07
2023-02-17T15:02:06.009Z,12.04
2023-02-17T15:12:05.911Z,12.04
2023-02-17T15:22:06.172Z,11.94
2023-02-17T15:32:06.264Z,12.02
2023-02-17T15:42:06.444Z,12.09
2023-02-17T15:52:06.710Z,12.37
2023-02-17T16:02:09.883Z,12.38
2023-02-17T16:12:06.864Z,12.50
2023-02-17T16:22:07.409Z,12.29
2023-02-17T16:32:07.403Z,12.31
2023-02-17T16:42:07.695Z,12.19
2023-02-17T16:52:07.645Z,12.07
2023-02-17T17:02:08.848Z,12.19
2023-02-17T17:12:07.976Z,12.07
2023-02-17T17:22:08.189Z,11.79
2023-02-17T17:32:08.414Z,11.70
2023-02-17T17:42:10.628Z,11.76
2023-02-17T17:52:08.849Z,11.72
2023-02-17T18:02:09.865Z,11.62
2023-02-17T18:12:09.191Z,11.58
2023-02-17T18:22:11.355Z,11.62
2023-02-17T18:32:09.586Z,11.43
2023-02-17T18:42:15.627Z,11.35
2023-02-17T18:52:09.788Z,11.32
2023-02-17T19:02:10.098Z,11.42
2023-02-17T19:12:10.832Z,11.28
2023-02-17T19:22:10.091Z,11.06
2023-02-17T19:32:10.605Z,10.84
2023-02-17T19:42:10.571Z,10.97
2023-02-17T19:52:10.940Z,10.96
2023-02-17T20:02:10.946Z,11.10
2023-02-17T20:12:11.274Z,11.02
2023-02-17T20:22:11.594Z,10.94
2023-02-17T20:32:11.662Z,10.89
2023-02-17T20:42:11.685Z,10.88
2023-02-17T20:52:11.866Z,11.10
2023-02-17T21:02:12.120Z,10.91
2023-02-17T21:12:12.080Z,10.82
2023-02-17T21:22:12.158Z,10.79
2023-02-17T21:32:12.549Z,11.00
2023-02-17T21:42:12.571Z,11.18
2023-02-17T21:52:12.481Z,10.84
2023-02-17T22:02:13.989Z,10.96
2023-02-17T22:12:12.920Z,10.85
2023-02-17T22:22:13.227Z,10.71
2023-02-17T22:32:13.339Z,10.74
2023-02-17T22:42:13.510Z,10.60
2023-02-17T22:52:13.547Z,10.52
2023-02-17T23:02:15.827Z,10.64
2023-02-17T23:12:13.854Z,10.81
2023-02-17T23:22:14.153Z,10.73
2023-02-17T23:32:14.181Z,10.63
2023-02-17T23:42:14.526Z,10.53
2023-02-17T23:52:14.546Z,10.38
